AirNav   Pilot Hours Calculator
 
 1107 users online  

3CO5 Texas Creek Heliport
Texas Creek, Colorado, USA

GOING TO TEXAS CREEK?


FAA INFORMATION EFFECTIVE 08 SEPTEMBER 2022

Location

FAA Identifier: 3CO5
Lat/Long: 38-24-34.0000N 105-35-07.0000W
38-24.566667N 105-35.116667W
38.4094444,-105.5852778
(estimated)
Elevation: 6250 ft. / 1905 m (estimated)
Variation: 11E (1995)
Time zone: UTC -6 (UTC -7 during Standard Time)
Zip code: 81223

Heliport Operations

Heliport use: Private use. Permission required prior to landing
Activation date: 10/1997
Control tower: no
ARTCC: DENVER CENTER
FSS: DENVER FLIGHT SERVICE STATION
Attendance: UNATNDD
Segmented circle: no

Heliport Services

Runway Information

Helipad H1

Dimensions: 20 x 20 ft. / 6 x 6 m
Surface: dirt
Traffic pattern: leftleft

Heliport Ownership and Management from official FAA records

Ownership: Privately-owned
Owner: CENTURYLINK
9666 METRO AIRPORT AVE
BROOMFIELD, CO 80012
Phone (303) 643-4972
Manager: DARREN ALMSKOG
9666 METRO AIRPORT AVE
BROOMFIELD, CO 80012
Phone (303) 304-9960
DARREN ALMSKOG 303-304-9960 DARREN.ALMSKOG@CENTURYLINK.COM

Additional Remarks

A52-H1 HAS +15 FT TWR 100 FT E; +30 FT POWERLINE 125 FT E.
FOR CD CTC DENVER ARTCC AT 303-651-4257.

Instrument Procedures

There are no published instrument procedures at 3CO5.

Some nearby airports with instrument procedures:

1V6 - Fremont County Airport (23 nm E)
KANK - Salida Airport/Harriett Alexander Field (23 nm W)
KAEJ - Central Colorado Regional Airport (35 nm NW)
KCOS - City of Colorado Springs Municipal Airport (48 nm NE)
KPUB - Pueblo Memorial Airport (52 nm E)
 
Loc | Ops | Rwys | IFR | FBO | Links
Com | Nav | Svcs | Stats | Notes

AirBoss

 
Area around 3CO5 (Texas Creek Heliport)
 
Road maps at: MapQuest Bing Google
 
Aerial photo
No photo
 
Sectional chart

 
Airport distance calculator
Flying to Texas Creek Heliport? Find the distance to fly.

From to 3CO5

Sunrise and sunset
Times for 24-Sep-2022
 Local
(UTC-6)
 Zulu
(UTC)
Morning civil twilight06:2612:26
Sunrise06:5312:53
Sunset18:5600:56
Evening civil twilight19:2201:22

Current date and time
Zulu (UTC)  24-Sep-2022 21:47:50
Local (UTC-6)  24-Sep-2022 15:47:50
 
METAR
K1V6 
23nm E 
242135Z AUTO 14004KT 10SM CLR 31/M01 A3013 RMK AO2
KANK 
23nm W 
242130Z AUTO 00000KT 10SM CLR A3037 RMK AO1
K04V 
33nm SW 
242135Z AUTO 27007KT 212V312 10SM 24/M05 A3035 RMK AO2
KMYP 
35nm W 
242131Z AUTO 26014G21KT 10SM CLR 13/M03 A3074 RMK AO2
KAEJ 
35nm NW 
242135Z AUTO 12005KT 10SM 23/M08 A3033 RMK AO2 T02301082
K7BM 
38nm NW 
242134Z AUTO 00000KT 10SM CLR 18/M11 A3048 RMK AO2
K4BM 
39nm N 
242135Z AUTO 29005KT 10SM CLR 15/M11 A3061 RMK AO2
KFCS 
41nm E 
242056Z AUTO 13008KT 10SM CLR 28/M04 A3016 RMK AO2 SLP164 T02791042 57018 $
TAF
KFCS 
41nm E 
241545Z 2405/2511 34005KT 9999 SKC QNH3021INS BECMG 2418/2419 20010G15KT 9999 SKC QNH3019INS BECMG 2500/2501 34008KT 9999 SKC QNH3024INS TX25/2421Z TN08/2510Z LAST NO AMDS AFT 2405 NEXT 2605
KCOS 
47nm NE 
241724Z 2418/2518 16012G22KT P6SM SKC FM242300 10008KT P6SM SKC FM250300 01007KT P6SM SKC FM250800 35014KT P6SM SCT080 FM251700 16008KT P6SM SCT080
KAFF 
49nm NE 
241905Z 2419/2601 14012KT 9999 SKC 520006 QNH3023INS WND 110V240 BECMG 2501/2502 35009KT 9999 FEW080 QNH3021INS BECMG 2507/2508 02015KT 9999 VCSH FEW045 SCT060 QNH3030INS BECMG 2510/2511 36009KT 9999 NSW FEW070 QNH3036INS BECMG 2516/2517 14018KT 9999 FEW100 QNH3044INS BECMG 2518/2519 16015G25KT 9999 FEW080 FEW180 520006 QNH3031INS TX24/2421Z TN04/2512Z
NOTAMs
Click for the latest NOTAMs
NOTAMs are issued by the DoD/FAA and will open in a separate window not controlled by AirNav.

 

 
 

Would you like to see your business listed on this page?

 If your business provides an interesting product or service to pilots, flight crews, aircraft, or users of the Texas Creek Heliport, you should consider listing it here.  To start the listing process, click on the button below
 
Add a business
 

Other Pages about Texas Creek Heliport

Update a link
 
Copyright © AirNav, LLC. All rights reserved. Privacy Policy  Contact